SHAH weather

Public forecast

Using degrees Celsius for public forecast. Weather courtesy of forecast.io.

Closest aviation weather report (METAR) to Nazareno II Heliport

Report is more than 2 hours old.

Closest report is Eulogio Sánchez Airport, 3.6 nm (6.7 km) SSE. Retrieved 2020/08/10 22:00 UTC (3 hours ago):

SCTB 102200Z 20007KT CAVOK 14/02 Q1021

Closest aviation forecast (TAF) to Nazareno II Heliport

Closest forecast is Comodoro Arturo Merino Benítez International Airport, 10.6 nm (19.7 km) W. Retrieved 2020-08-11 00:00 UTC (1 hour ago):

TAF SCEL 102217Z 1100/1124 19009KT CAVOK TX17/1118Z TN00/1110Z BECMG 1102/1104 16004KT BECMG 1106/1108 VRB02KT 7000 TEMPO 1108/1112 5000 BR BECMG 1114/1116 16004KT CAVOK BECMG 1118/1120 19008KT